sensor_id;sensor_type;location;lat;lon;timestamp;pressure;altitude;pressure_sealevel;temperature;humidity
21902;BME280;11115;46.038;14.612;2022-07-29T00:02:02;98383.13;;;19.18;100.00
21902;BME280;11115;46.038;14.612;2022-07-29T00:04:34;98374.41;;;19.03;100.00
21902;BME280;11115;46.038;14.612;2022-07-29T00:07:10;98370.91;;;18.71;100.00
21902;BME280;11115;46.038;14.612;2022-07-29T00:09:42;98369.88;;;18.79;100.00
21902;BME280;11115;46.038;14.612;2022-07-29T00:12:23;98376.09;;;19.08;100.00
21902;BME280;11115;46.038;14.612;2022-07-29T00:14:55;98350.78;;;18.85;100.00
21902;BME280;11115;46.038;14.612;2022-07-29T00:17:32;98372.22;;;18.62;100.00
21902;BME280;11115;46.038;14.612;2022-07-29T00:20:07;98374.34;;;18.65;100.00
21902;BME280;11115;46.038;14.612;2022-07-29T00:22:40;98370.47;;;18.38;100.00
21902;BME280;11115;46.038;14.612;2022-07-29T00:25:12;98373.72;;;18.08;100.00
21902;BME280;11115;46.038;14.612;2022-07-29T00:27:52;98359.19;;;18.18;100.00
21902;BME280;11115;46.038;14.612;2022-07-29T00:30:22;98379.38;;;18.59;100.00
21902;BME280;11115;46.038;14.612;2022-07-29T00:33:00;98376.59;;;18.59;100.00
21902;BME280;11115;46.038;14.612;2022-07-29T00:35:35;98381.38;;;18.43;100.00
21902;BME280;11115;46.038;14.612;2022-07-29T00:38:21;98377.78;;;18.11;100.00
21902;BME280;11115;46.038;14.612;2022-07-29T00:40:54;98380.94;;;18.41;100.00
21902;BME280;11115;46.038;14.612;2022-07-29T00:43:24;98374.47;;;18.21;100.00
21902;BME280;11115;46.038;14.612;2022-07-29T00:45:54;98366.59;;;18.11;100.00
21902;BME280;11115;46.038;14.612;2022-07-29T00:48:23;98370.31;;;17.99;100.00
21902;BME280;11115;46.038;14.612;2022-07-29T00:51:04;98358.56;;;18.09;100.00
21902;BME280;11115;46.038;14.612;2022-07-29T00:53:38;98364.53;;;18.08;100.00
21902;BME280;11115;46.038;14.612;2022-07-29T00:56:09;98366.22;;;17.53;100.00
21902;BME280;11115;46.038;14.612;2022-07-29T00:58:40;98351.78;;;17.79;100.00
21902;BME280;11115;46.038;14.612;2022-07-29T01:01:09;98366.50;;;17.76;100.00
21902;BME280;11115;46.038;14.612;2022-07-29T01:03:53;98361.50;;;17.69;100.00
21902;BME280;11115;46.038;14.612;2022-07-29T01:06:34;98369.28;;;17.48;100.00
21902;BME280;11115;46.038;14.612;2022-07-29T01:09:08;98371.69;;;17.34;100.00
21902;BME280;11115;46.038;14.612;2022-07-29T01:12:03;98374.25;;;17.39;100.00
21902;BME280;11115;46.038;14.612;2022-07-29T01:14:38;98374.06;;;17.47;100.00
21902;BME280;11115;46.038;14.612;2022-07-29T01:17:23;98369.34;;;17.64;100.00
21902;BME280;11115;46.038;14.612;2022-07-29T01:29:34;98343.44;;;17.67;100.00
21902;BME280;11115;46.038;14.612;2022-07-29T01:32:12;98335.63;;;18.19;100.00
21902;BME280;11115;46.038;14.612;2022-07-29T01:35:26;98344.94;;;18.08;100.00
21902;BME280;11115;46.038;14.612;2022-07-29T01:38:19;98339.97;;;18.01;100.00
21902;BME280;11115;46.038;14.612;2022-07-29T01:41:09;98329.59;;;18.17;100.00
21902;BME280;11115;46.038;14.612;2022-07-29T01:44:10;98329.94;;;17.84;100.00
21902;BME280;11115;46.038;14.612;2022-07-29T01:46:58;98323.53;;;18.15;100.00
21902;BME280;11115;46.038;14.612;2022-07-29T01:49:36;98329.31;;;17.75;100.00
21902;BME280;11115;46.038;14.612;2022-07-29T01:52:20;98326.41;;;17.72;100.00
21902;BME280;11115;46.038;14.612;2022-07-29T01:54:59;98322.00;;;17.71;100.00
21902;BME280;11115;46.038;14.612;2022-07-29T01:57:36;98327.75;;;17.34;100.00
21902;BME280;11115;46.038;14.612;2022-07-29T02:00:18;98328.94;;;17.33;100.00
21902;BME280;11115;46.038;14.612;2022-07-29T02:02:53;98326.56;;;17.63;100.00
21902;BME280;11115;46.038;14.612;2022-07-29T02:05:32;98326.06;;;17.89;100.00
21902;BME280;11115;46.038;14.612;2022-07-29T02:08:09;98319.03;;;17.79;100.00
21902;BME280;11115;46.038;14.612;2022-07-29T02:10:47;98321.25;;;17.58;100.00
21902;BME280;11115;46.038;14.612;2022-07-29T02:13:20;98321.47;;;17.53;100.00
21902;BME280;11115;46.038;14.612;2022-07-29T02:15:55;98324.41;;;17.56;100.00
21902;BME280;11115;46.038;14.612;2022-07-29T02:18:31;98321.94;;;17.39;100.00
21902;BME280;11115;46.038;14.612;2022-07-29T02:21:04;98327.44;;;17.36;100.00
21902;BME280;11115;46.038;14.612;2022-07-29T02:23:42;98324.63;;;17.36;100.00
21902;BME280;11115;46.038;14.612;2022-07-29T02:26:20;98330.00;;;17.28;100.00
21902;BME280;11115;46.038;14.612;2022-07-29T02:28:59;98320.53;;;17.17;100.00
21902;BME280;11115;46.038;14.612;2022-07-29T02:31:37;98331.53;;;17.26;100.00
21902;BME280;11115;46.038;14.612;2022-07-29T02:34:15;98325.53;;;17.40;100.00
21902;BME280;11115;46.038;14.612;2022-07-29T02:36:56;98317.25;;;17.15;100.00
21902;BME280;11115;46.038;14.612;2022-07-29T02:39:36;98314.94;;;17.33;100.00
21902;BME280;11115;46.038;14.612;2022-07-29T02:42:15;98314.00;;;17.41;100.00
21902;BME280;11115;46.038;14.612;2022-07-29T02:44:45;98317.53;;;17.10;100.00
21902;BME280;11115;46.038;14.612;2022-07-29T02:47:24;98315.09;;;16.81;100.00
21902;BME280;11115;46.038;14.612;2022-07-29T02:50:33;98309.19;;;17.26;100.00
21902;BME280;11115;46.038;14.612;2022-07-29T02:53:14;98311.25;;;17.29;100.00
21902;BME280;11115;46.038;14.612;2022-07-29T02:55:51;98323.59;;;17.28;100.00
21902;BME280;11115;46.038;14.612;2022-07-29T02:58:42;98325.19;;;17.13;100.00
21902;BME280;11115;46.038;14.612;2022-07-29T03:01:30;98325.22;;;17.29;100.00
21902;BME280;11115;46.038;14.612;2022-07-29T03:04:07;98319.78;;;17.48;100.00
21902;BME280;11115;46.038;14.612;2022-07-29T03:06:55;98292.81;;;17.40;100.00
21902;BME280;11115;46.038;14.612;2022-07-29T03:09:35;98314.63;;;17.50;100.00
21902;BME280;11115;46.038;14.612;2022-07-29T03:12:06;98324.53;;;17.04;100.00
21902;BME280;11115;46.038;14.612;2022-07-29T03:14:41;98315.84;;;16.93;100.00
21902;BME280;11115;46.038;14.612;2022-07-29T03:17:17;98307.47;;;17.21;100.00
21902;BME280;11115;46.038;14.612;2022-07-29T03:19:52;98321.09;;;17.23;100.00
21902;BME280;11115;46.038;14.612;2022-07-29T03:22:26;98325.25;;;17.01;100.00
21902;BME280;11115;46.038;14.612;2022-07-29T03:25:07;98328.28;;;16.96;100.00
21902;BME280;11115;46.038;14.612;2022-07-29T03:27:38;98327.78;;;17.06;100.00
21902;BME280;11115;46.038;14.612;2022-07-29T03:30:10;98326.94;;;17.18;100.00
21902;BME280;11115;46.038;14.612;2022-07-29T03:32:50;98317.38;;;17.19;100.00
21902;BME280;11115;46.038;14.612;2022-07-29T03:35:21;98319.75;;;17.05;100.00
21902;BME280;11115;46.038;14.612;2022-07-29T03:37:59;98324.13;;;17.18;100.00
21902;BME280;11115;46.038;14.612;2022-07-29T03:41:17;98317.00;;;16.92;100.00
21902;BME280;11115;46.038;14.612;2022-07-29T03:43:51;98316.78;;;16.97;100.00
21902;BME280;11115;46.038;14.612;2022-07-29T03:46:23;98324.78;;;16.47;100.00
21902;BME280;11115;46.038;14.612;2022-07-29T03:49:02;98321.59;;;16.73;100.00
21902;BME280;11115;46.038;14.612;2022-07-29T03:51:36;98339.25;;;16.89;100.00
21902;BME280;11115;46.038;14.612;2022-07-29T03:54:17;98329.88;;;16.69;100.00
21902;BME280;11115;46.038;14.612;2022-07-29T03:56:50;98350.44;;;16.77;100.00
21902;BME280;11115;46.038;14.612;2022-07-29T03:59:24;98348.84;;;16.63;100.00
21902;BME280;11115;46.038;14.612;2022-07-29T04:02:04;98353.16;;;16.73;100.00
21902;BME280;11115;46.038;14.612;2022-07-29T04:04:38;98332.47;;;16.37;100.00
21902;BME280;11115;46.038;14.612;2022-07-29T04:07:14;98363.41;;;16.45;100.00
21902;BME280;11115;46.038;14.612;2022-07-29T04:10:05;98366.78;;;16.50;100.00
21902;BME280;11115;46.038;14.612;2022-07-29T04:12:38;98369.00;;;16.45;100.00
21902;BME280;11115;46.038;14.612;2022-07-29T04:15:09;98362.13;;;16.66;100.00
21902;BME280;11115;46.038;14.612;2022-07-29T04:17:41;98361.41;;;16.69;100.00
21902;BME280;11115;46.038;14.612;2022-07-29T04:20:17;98354.47;;;17.04;100.00
21902;BME280;11115;46.038;14.612;2022-07-29T04:22:49;98352.84;;;17.03;100.00
21902;BME280;11115;46.038;14.612;2022-07-29T04:25:38;98350.75;;;17.27;100.00
21902;BME280;11115;46.038;14.612;2022-07-29T04:28:14;98352.59;;;17.36;100.00
21902;BME280;11115;46.038;14.612;2022-07-29T04:30:44;98332.81;;;17.28;100.00
21902;BME280;11115;46.038;14.612;2022-07-29T04:33:21;98361.28;;;17.46;100.00
21902;BME280;11115;46.038;14.612;2022-07-29T04:35:50;98357.84;;;17.53;100.00
21902;BME280;11115;46.038;14.612;2022-07-29T04:38:24;98359.94;;;17.56;100.00
21902;BME280;11115;46.038;14.612;2022-07-29T04:40:57;98350.22;;;17.66;100.00
21902;BME280;11115;46.038;14.612;2022-07-29T04:43:38;98357.19;;;17.72;100.00
21902;BME280;11115;46.038;14.612;2022-07-29T04:46:23;98352.59;;;17.51;100.00
21902;BME280;11115;46.038;14.612;2022-07-29T04:49:07;98344.41;;;17.43;100.00
21902;BME280;11115;46.038;14.612;2022-07-29T04:51:42;98334.84;;;17.44;100.00
21902;BME280;11115;46.038;14.612;2022-07-29T04:54:17;98311.22;;;17.57;100.00
21902;BME280;11115;46.038;14.612;2022-07-29T04:56:58;98343.03;;;17.80;100.00
21902;BME280;11115;46.038;14.612;2022-07-29T04:59:36;98345.41;;;17.94;100.00
21902;BME280;11115;46.038;14.612;2022-07-29T05:02:12;98340.78;;;18.02;100.00
21902;BME280;11115;46.038;14.612;2022-07-29T05:04:47;98343.56;;;18.17;100.00
21902;BME280;11115;46.038;14.612;2022-07-29T05:07:17;98332.00;;;18.35;100.00
21902;BME280;11115;46.038;14.612;2022-07-29T05:09:48;98343.81;;;18.44;100.00
21902;BME280;11115;46.038;14.612;2022-07-29T05:12:21;98333.94;;;18.50;100.00
21902;BME280;11115;46.038;14.612;2022-07-29T05:14:58;98339.59;;;18.69;100.00
21902;BME280;11115;46.038;14.612;2022-07-29T05:17:28;98325.97;;;18.68;100.00
21902;BME280;11115;46.038;14.612;2022-07-29T05:19:59;98312.88;;;18.91;100.00
21902;BME280;11115;46.038;14.612;2022-07-29T05:22:29;98315.81;;;19.18;100.00
21902;BME280;11115;46.038;14.612;2022-07-29T05:25:14;98307.41;;;19.18;100.00
21902;BME280;11115;46.038;14.612;2022-07-29T05:28:11;98308.16;;;19.15;100.00
21902;BME280;11115;46.038;14.612;2022-07-29T05:30:44;98296.31;;;19.25;100.00
21902;BME280;11115;46.038;14.612;2022-07-29T05:33:18;98285.06;;;19.44;100.00
21902;BME280;11115;46.038;14.612;2022-07-29T05:36:04;98293.84;;;19.62;100.00
21902;BME280;11115;46.038;14.612;2022-07-29T05:38:49;98305.94;;;19.66;100.00
21902;BME280;11115;46.038;14.612;2022-07-29T05:41:34;98310.13;;;19.76;100.00
21902;BME280;11115;46.038;14.612;2022-07-29T05:44:09;98295.91;;;19.65;100.00
21902;BME280;11115;46.038;14.612;2022-07-29T05:46:54;98322.06;;;19.69;100.00
21902;BME280;11115;46.038;14.612;2022-07-29T05:49:33;98337.34;;;19.72;100.00
21902;BME280;11115;46.038;14.612;2022-07-29T05:52:11;98348.38;;;19.84;100.00
21902;BME280;11115;46.038;14.612;2022-07-29T05:54:43;98356.28;;;19.78;100.00
21902;BME280;11115;46.038;14.612;2022-07-29T05:57:21;98350.25;;;19.76;100.00
21902;BME280;11115;46.038;14.612;2022-07-29T06:00:02;98344.50;;;19.92;100.00
21902;BME280;11115;46.038;14.612;2022-07-29T06:02:39;98348.25;;;19.99;100.00
21902;BME280;11115;46.038;14.612;2022-07-29T06:05:09;98345.13;;;20.05;100.00
21902;BME280;11115;46.038;14.612;2022-07-29T06:07:45;98347.06;;;20.00;100.00
21902;BME280;11115;46.038;14.612;2022-07-29T06:10:19;98352.13;;;19.91;100.00
21902;BME280;11115;46.038;14.612;2022-07-29T06:12:54;98352.63;;;19.97;100.00
21902;BME280;11115;46.038;14.612;2022-07-29T06:15:25;98350.44;;;19.87;100.00
21902;BME280;11115;46.038;14.612;2022-07-29T06:18:00;98367.09;;;19.99;100.00
21902;BME280;11115;46.038;14.612;2022-07-29T06:20:41;98362.66;;;20.21;100.00
21902;BME280;11115;46.038;14.612;2022-07-29T06:23:21;98363.41;;;20.41;100.00
21902;BME280;11115;46.038;14.612;2022-07-29T06:25:51;98356.88;;;20.59;100.00
21902;BME280;11115;46.038;14.612;2022-07-29T06:28:23;98367.47;;;20.70;100.00
21902;BME280;11115;46.038;14.612;2022-07-29T06:31:03;98370.75;;;20.75;100.00
21902;BME280;11115;46.038;14.612;2022-07-29T06:33:42;98347.44;;;20.45;100.00
21902;BME280;11115;46.038;14.612;2022-07-29T06:36:18;98339.72;;;20.65;100.00
21902;BME280;11115;46.038;14.612;2022-07-29T06:38:52;98357.16;;;21.07;100.00
21902;BME280;11115;46.038;14.612;2022-07-29T06:41:30;98359.97;;;21.37;100.00
21902;BME280;11115;46.038;14.612;2022-07-29T06:44:13;98362.66;;;21.27;100.00
21902;BME280;11115;46.038;14.612;2022-07-29T06:46:47;98358.03;;;21.41;100.00
21902;BME280;11115;46.038;14.612;2022-07-29T06:49:29;98352.50;;;21.52;100.00
21902;BME280;11115;46.038;14.612;2022-07-29T06:52:00;98360.59;;;21.57;100.00
21902;BME280;11115;46.038;14.612;2022-07-29T06:54:31;98337.34;;;21.60;100.00
21902;BME280;11115;46.038;14.612;2022-07-29T06:57:18;98358.84;;;21.79;100.00
21902;BME280;11115;46.038;14.612;2022-07-29T07:00:03;98361.56;;;21.72;100.00
21902;BME280;11115;46.038;14.612;2022-07-29T07:02:33;98363.41;;;21.94;100.00
21902;BME280;11115;46.038;14.612;2022-07-29T07:05:06;98369.53;;;22.00;100.00
21902;BME280;11115;46.038;14.612;2022-07-29T07:07:42;98359.63;;;22.17;100.00
21902;BME280;11115;46.038;14.612;2022-07-29T07:10:14;98360.25;;;22.44;100.00
21902;BME280;11115;46.038;14.612;2022-07-29T07:12:51;98361.84;;;22.37;100.00
21902;BME280;11115;46.038;14.612;2022-07-29T07:15:23;98357.47;;;22.47;100.00
21902;BME280;11115;46.038;14.612;2022-07-29T07:18:06;98351.06;;;22.54;100.00
21902;BME280;11115;46.038;14.612;2022-07-29T07:20:38;98360.06;;;22.73;100.00
21902;BME280;11115;46.038;14.612;2022-07-29T07:23:13;98347.94;;;22.66;100.00
21902;BME280;11115;46.038;14.612;2022-07-29T07:25:49;98350.50;;;22.82;100.00
21902;BME280;11115;46.038;14.612;2022-07-29T07:28:24;98351.38;;;22.96;100.00
21902;BME280;11115;46.038;14.612;2022-07-29T07:31:10;98341.34;;;23.02;100.00
21902;BME280;11115;46.038;14.612;2022-07-29T07:33:42;98341.03;;;23.18;100.00
21902;BME280;11115;46.038;14.612;2022-07-29T07:36:12;98336.19;;;23.26;100.00
21902;BME280;11115;46.038;14.612;2022-07-29T07:38:52;98346.44;;;23.70;100.00
21902;BME280;11115;46.038;14.612;2022-07-29T07:41:25;98340.78;;;23.59;100.00
21902;BME280;11115;46.038;14.612;2022-07-29T07:43:58;98340.84;;;23.77;100.00
21902;BME280;11115;46.038;14.612;2022-07-29T07:46:42;98346.94;;;23.97;100.00
21902;BME280;11115;46.038;14.612;2022-07-29T07:49:34;98348.94;;;24.25;100.00
21902;BME280;11115;46.038;14.612;2022-07-29T07:52:22;98345.38;;;24.35;100.00
21902;BME280;11115;46.038;14.612;2022-07-29T07:55:01;98346.16;;;24.39;100.00
21902;BME280;11115;46.038;14.612;2022-07-29T07:57:33;98347.38;;;24.45;100.00
21902;BME280;11115;46.038;14.612;2022-07-29T08:00:04;98351.41;;;24.47;100.00
21902;BME280;11115;46.038;14.612;2022-07-29T08:02:55;98336.47;;;24.40;100.00
21902;BME280;11115;46.038;14.612;2022-07-29T08:05:27;98342.09;;;24.65;100.00
21902;BME280;11115;46.038;14.612;2022-07-29T08:08:01;98340.91;;;24.55;100.00
21902;BME280;11115;46.038;14.612;2022-07-29T08:10:31;98336.47;;;24.54;100.00
21902;BME280;11115;46.038;14.612;2022-07-29T08:13:33;98339.22;;;24.86;100.00
21902;BME280;11115;46.038;14.612;2022-07-29T08:16:07;98343.69;;;24.91;100.00
21902;BME280;11115;46.038;14.612;2022-07-29T08:18:43;98340.84;;;25.08;100.00
21902;BME280;11115;46.038;14.612;2022-07-29T08:21:18;98336.72;;;25.27;100.00
21902;BME280;11115;46.038;14.612;2022-07-29T08:23:50;98339.09;;;25.36;100.00
21902;BME280;11115;46.038;14.612;2022-07-29T08:26:47;98333.34;;;25.54;100.00
21902;BME280;11115;46.038;14.612;2022-07-29T08:29:16;98330.84;;;25.74;100.00
21902;BME280;11115;46.038;14.612;2022-07-29T08:31:46;98316.19;;;25.82;100.00
21902;BME280;11115;46.038;14.612;2022-07-29T08:34:23;98328.22;;;26.00;100.00
21902;BME280;11115;46.038;14.612;2022-07-29T08:36:56;98322.56;;;26.04;100.00
21902;BME280;11115;46.038;14.612;2022-07-29T08:39:33;98323.19;;;26.26;100.00
21902;BME280;11115;46.038;14.612;2022-07-29T08:42:07;98328.78;;;26.33;100.00
21902;BME280;11115;46.038;14.612;2022-07-29T08:44:43;98308.09;;;26.43;100.00
21902;BME280;11115;46.038;14.612;2022-07-29T08:47:14;98316.63;;;26.32;100.00
21902;BME280;11115;46.038;14.612;2022-07-29T08:49:52;98313.59;;;26.61;100.00
21902;BME280;11115;46.038;14.612;2022-07-29T08:52:28;98298.91;;;26.70;100.00
21902;BME280;11115;46.038;14.612;2022-07-29T08:55:02;98311.53;;;27.03;100.00
21902;BME280;11115;46.038;14.612;2022-07-29T08:57:38;98309.25;;;26.87;100.00
21902;BME280;11115;46.038;14.612;2022-07-29T09:00:26;98299.66;;;26.74;100.00
21902;BME280;11115;46.038;14.612;2022-07-29T09:02:58;98305.13;;;26.54;100.00
21902;BME280;11115;46.038;14.612;2022-07-29T09:05:31;98304.88;;;26.79;100.00
21902;BME280;11115;46.038;14.612;2022-07-29T09:08:15;98300.66;;;26.94;100.00
21902;BME280;11115;46.038;14.612;2022-07-29T09:10:45;98305.72;;;27.13;100.00
21902;BME280;11115;46.038;14.612;2022-07-29T09:13:15;98302.47;;;27.45;100.00
21902;BME280;11115;46.038;14.612;2022-07-29T09:15:48;98304.19;;;27.70;100.00
21902;BME280;11115;46.038;14.612;2022-07-29T09:18:41;98293.25;;;27.95;100.00
21902;BME280;11115;46.038;14.612;2022-07-29T09:21:19;98301.16;;;27.84;100.00
21902;BME280;11115;46.038;14.612;2022-07-29T09:24:11;98297.94;;;27.82;100.00
21902;BME280;11115;46.038;14.612;2022-07-29T09:26:52;98291.78;;;28.10;100.00
21902;BME280;11115;46.038;14.612;2022-07-29T09:29:38;98287.28;;;28.13;100.00
21902;BME280;11115;46.038;14.612;2022-07-29T09:32:09;98296.50;;;28.21;100.00
21902;BME280;11115;46.038;14.612;2022-07-29T09:34:45;98279.66;;;28.33;100.00
21902;BME280;11115;46.038;14.612;2022-07-29T09:37:29;98282.25;;;28.48;100.00
21902;BME280;11115;46.038;14.612;2022-07-29T09:39:58;98284.72;;;28.92;84.62
21902;BME280;11115;46.038;14.612;2022-07-29T09:42:35;98280.59;;;28.70;80.22
21902;BME280;11115;46.038;14.612;2022-07-29T09:45:33;98270.88;;;28.48;78.61
21902;BME280;11115;46.038;14.612;2022-07-29T09:48:24;98268.91;;;29.08;100.00
21902;BME280;11115;46.038;14.612;2022-07-29T09:50:57;98253.50;;;29.05;76.11
21902;BME280;11115;46.038;14.612;2022-07-29T09:53:46;98262.94;;;29.22;75.92
21902;BME280;11115;46.038;14.612;2022-07-29T09:56:40;98256.59;;;29.14;71.18
21902;BME280;11115;46.038;14.612;2022-07-29T09:59:24;98251.31;;;29.33;73.47
21902;BME280;11115;46.038;14.612;2022-07-29T10:02:01;98250.56;;;29.48;78.62
21902;BME280;11115;46.038;14.612;2022-07-29T10:04:50;98257.38;;;29.54;72.17
21902;BME280;11115;46.038;14.612;2022-07-29T10:07:54;98251.31;;;29.69;68.93
21902;BME280;11115;46.038;14.612;2022-07-29T10:10:35;98246.09;;;30.00;79.99
21902;BME280;11115;46.038;14.612;2022-07-29T10:13:13;98245.22;;;30.35;87.63
21902;BME280;11115;46.038;14.612;2022-07-29T10:15:45;98230.72;;;30.59;76.47
21902;BME280;11115;46.038;14.612;2022-07-29T10:18:21;98229.47;;;30.31;64.97
21902;BME280;11115;46.038;14.612;2022-07-29T10:21:00;98244.06;;;30.33;74.64
21902;BME280;11115;46.038;14.612;2022-07-29T10:24:03;98233.00;;;30.67;69.19
21902;BME280;11115;46.038;14.612;2022-07-29T10:26:45;98218.28;;;30.81;66.87
21902;BME280;11115;46.038;14.612;2022-07-29T10:29:25;98232.63;;;30.94;69.18
21902;BME280;11115;46.038;14.612;2022-07-29T10:32:43;98233.59;;;31.17;62.22
21902;BME280;11115;46.038;14.612;2022-07-29T10:42:05;98225.22;;;31.51;59.29
21902;BME280;11115;46.038;14.612;2022-07-29T10:44:45;98224.75;;;31.53;55.50
21902;BME280;11115;46.038;14.612;2022-07-29T10:47:28;98230.16;;;31.63;58.83
21902;BME280;11115;46.038;14.612;2022-07-29T10:50:13;98223.84;;;31.56;56.17
21902;BME280;11115;46.038;14.612;2022-07-29T10:52:54;98217.59;;;31.86;55.03
21902;BME280;11115;46.038;14.612;2022-07-29T10:55:38;98212.56;;;32.50;57.15
21902;BME280;11115;46.038;14.612;2022-07-29T10:58:22;98214.09;;;32.17;58.08
21902;BME280;11115;46.038;14.612;2022-07-29T11:01:31;98216.34;;;32.47;54.58
21902;BME280;11115;46.038;14.612;2022-07-29T11:04:04;98197.16;;;32.35;52.54
21902;BME280;11115;46.038;14.612;2022-07-29T11:12:56;98201.94;;;32.38;53.13
21902;BME280;11115;46.038;14.612;2022-07-29T11:15:57;98200.88;;;32.79;49.90
21902;BME280;11115;46.038;14.612;2022-07-29T11:18:29;98190.00;;;32.74;49.77
21902;BME280;11115;46.038;14.612;2022-07-29T11:21:01;98193.19;;;32.89;48.89
21902;BME280;11115;46.038;14.612;2022-07-29T11:23:33;98182.25;;;32.40;45.96
21902;BME280;11115;46.038;14.612;2022-07-29T11:26:23;98194.59;;;32.72;46.83
21902;BME280;11115;46.038;14.612;2022-07-29T11:29:18;98186.47;;;32.48;48.25
21902;BME280;11115;46.038;14.612;2022-07-29T11:31:52;98181.78;;;32.98;47.92
21902;BME280;11115;46.038;14.612;2022-07-29T11:34:30;98182.75;;;33.26;51.72
21902;BME280;11115;46.038;14.612;2022-07-29T11:37:13;98182.81;;;33.13;46.44
21902;BME280;11115;46.038;14.612;2022-07-29T11:40:08;98177.06;;;32.82;46.75
21902;BME280;11115;46.038;14.612;2022-07-29T11:42:45;98166.19;;;32.99;47.72
21902;BME280;11115;46.038;14.612;2022-07-29T11:45:24;98175.84;;;33.36;48.83
21902;BME280;11115;46.038;14.612;2022-07-29T11:48:22;98163.09;;;32.72;44.31
21902;BME280;11115;46.038;14.612;2022-07-29T11:50:59;98170.88;;;32.84;43.66
21902;BME280;11115;46.038;14.612;2022-07-29T11:53:38;98167.28;;;32.23;44.74
21902;BME280;11115;46.038;14.612;2022-07-29T11:56:12;98156.94;;;32.39;44.12
21902;BME280;11115;46.038;14.612;2022-07-29T11:59:06;98156.59;;;32.37;43.94
21902;BME280;11115;46.038;14.612;2022-07-29T12:01:58;98151.50;;;33.19;47.74
21902;BME280;11115;46.038;14.612;2022-07-29T12:04:59;98152.09;;;32.14;43.79
21902;BME280;11115;46.038;14.612;2022-07-29T12:07:39;98143.53;;;32.48;45.44
21902;BME280;11115;46.038;14.612;2022-07-29T12:10:14;98145.34;;;32.08;44.40
21902;BME280;11115;46.038;14.612;2022-07-29T12:12:57;98142.81;;;32.22;44.97
21902;BME280;11115;46.038;14.612;2022-07-29T12:15:31;98144.56;;;31.94;45.42
21902;BME280;11115;46.038;14.612;2022-07-29T12:18:20;98146.84;;;31.99;45.45
21902;BME280;11115;46.038;14.612;2022-07-29T12:21:02;98142.38;;;32.80;45.20
21902;BME280;11115;46.038;14.612;2022-07-29T12:23:38;98135.16;;;32.98;45.45
21902;BME280;11115;46.038;14.612;2022-07-29T12:26:09;98136.84;;;32.29;44.75
21902;BME280;11115;46.038;14.612;2022-07-29T12:28:53;98130.13;;;32.45;47.54
21902;BME280;11115;46.038;14.612;2022-07-29T12:31:30;98116.88;;;33.75;51.34
21902;BME280;11115;46.038;14.612;2022-07-29T12:34:08;98108.50;;;32.88;45.11
21902;BME280;11115;46.038;14.612;2022-07-29T12:36:53;98122.03;;;33.49;44.39
21902;BME280;11115;46.038;14.612;2022-07-29T12:39:25;98119.31;;;33.86;44.07
21902;BME280;11115;46.038;14.612;2022-07-29T12:42:00;98104.38;;;34.19;44.92
21902;BME280;11115;46.038;14.612;2022-07-29T12:44:49;98115.56;;;34.35;43.42
21902;BME280;11115;46.038;14.612;2022-07-29T12:47:21;98109.13;;;33.94;42.09
21902;BME280;11115;46.038;14.612;2022-07-29T12:50:14;98111.72;;;34.56;42.17
21902;BME280;11115;46.038;14.612;2022-07-29T12:53:03;98101.34;;;34.22;40.15
21902;BME280;11115;46.038;14.612;2022-07-29T12:55:48;98111.59;;;33.74;42.40
21902;BME280;11115;46.038;14.612;2022-07-29T12:58:43;98106.22;;;35.04;43.68
21902;BME280;11115;46.038;14.612;2022-07-29T13:01:19;98096.81;;;35.04;41.02
21902;BME280;11115;46.038;14.612;2022-07-29T13:04:02;98077.22;;;34.75;40.06
21902;BME280;11115;46.038;14.612;2022-07-29T13:06:45;98092.25;;;33.47;40.86
21902;BME280;11115;46.038;14.612;2022-07-29T13:09:20;98092.09;;;34.46;41.21
21902;BME280;11115;46.038;14.612;2022-07-29T13:12:06;98093.00;;;34.79;42.53
21902;BME280;11115;46.038;14.612;2022-07-29T13:14:48;98085.09;;;34.56;40.16
21902;BME280;11115;46.038;14.612;2022-07-29T13:17:26;98074.22;;;34.51;40.67
21902;BME280;11115;46.038;14.612;2022-07-29T13:20:08;98073.84;;;35.70;41.63
21902;BME280;11115;46.038;14.612;2022-07-29T13:22:50;98077.84;;;35.72;39.31
21902;BME280;11115;46.038;14.612;2022-07-29T13:25:30;98074.84;;;36.14;39.72
21902;BME280;11115;46.038;14.612;2022-07-29T13:28:07;98069.59;;;35.89;40.04
21902;BME280;11115;46.038;14.612;2022-07-29T13:30:36;98029.47;;;35.62;40.49
21902;BME280;11115;46.038;14.612;2022-07-29T13:33:15;98063.59;;;36.40;40.77
21902;BME280;11115;46.038;14.612;2022-07-29T13:35:50;98072.78;;;36.30;38.18
21902;BME280;11115;46.038;14.612;2022-07-29T13:38:24;98053.88;;;35.66;37.89
21902;BME280;11115;46.038;14.612;2022-07-29T13:40:58;98059.22;;;35.58;39.39
21902;BME280;11115;46.038;14.612;2022-07-29T13:43:33;98063.09;;;36.03;38.54
21902;BME280;11115;46.038;14.612;2022-07-29T13:46:06;98046.44;;;34.75;38.84
21902;BME280;11115;46.038;14.612;2022-07-29T13:48:39;98058.59;;;33.97;40.64
21902;BME280;11115;46.038;14.612;2022-07-29T13:51:14;98050.72;;;33.61;40.75
21902;BME280;11115;46.038;14.612;2022-07-29T13:53:47;98042.94;;;32.90;41.59
21902;BME280;11115;46.038;14.612;2022-07-29T13:56:27;98045.69;;;33.34;42.41
21902;BME280;11115;46.038;14.612;2022-07-29T13:59:00;98030.34;;;34.32;42.92
21902;BME280;11115;46.038;14.612;2022-07-29T14:01:40;98031.50;;;34.07;42.52
21902;BME280;11115;46.038;14.612;2022-07-29T14:04:12;98032.06;;;34.66;41.30
21902;BME280;11115;46.038;14.612;2022-07-29T14:06:48;98025.53;;;34.65;41.17